createdAt,value
2023-05-24T00:01:57.091Z,100.00
2023-05-24T00:04:25.589Z,100.00
2023-05-24T00:06:55.131Z,100.00
2023-05-24T00:09:22.027Z,100.00
2023-05-24T00:11:48.895Z,100.00
2023-05-24T00:14:15.891Z,100.00
2023-05-24T00:16:42.841Z,100.00
2023-05-24T00:19:11.491Z,100.00
2023-05-24T00:21:38.503Z,100.00
2023-05-24T00:24:05.365Z,100.00
2023-05-24T00:26:32.165Z,100.00
2023-05-24T00:28:58.927Z,100.00
2023-05-24T00:31:25.704Z,100.00
2023-05-24T00:33:52.424Z,100.00
2023-05-24T00:36:19.145Z,100.00
2023-05-24T00:38:45.911Z,100.00
2023-05-24T00:41:12.592Z,100.00
2023-05-24T00:43:39.342Z,100.00
2023-05-24T00:46:24.341Z,100.00
2023-05-24T00:48:51.153Z,100.00
2023-05-24T00:51:18.068Z,100.00
2023-05-24T00:53:48.550Z,100.00
2023-05-24T00:56:15.723Z,100.00
2023-05-24T00:58:42.489Z,100.00
2023-05-24T01:01:09.349Z,100.00
2023-05-24T01:03:36.276Z,100.00
2023-05-24T01:06:04.848Z,100.00
2023-05-24T01:09:06.827Z,100.00
2023-05-24T01:11:52.138Z,100.00
2023-05-24T01:14:40.508Z,100.00
2023-05-24T01:17:20.231Z,100.00
2023-05-24T01:19:53.104Z,100.00
2023-05-24T01:22:57.251Z,100.00
2023-05-24T01:26:08.090Z,100.00
2023-05-24T01:28:35.298Z,100.00
2023-05-24T01:31:02.061Z,100.00
2023-05-24T01:33:28.871Z,100.00
2023-05-24T01:35:55.601Z,100.00
2023-05-24T01:38:22.354Z,100.00
2023-05-24T01:40:50.715Z,100.00
2023-05-24T01:43:38.248Z,100.00
2023-05-24T01:46:11.142Z,100.00
2023-05-24T01:49:08.486Z,100.00
2023-05-24T01:51:40.349Z,100.00
2023-05-24T01:54:07.169Z,100.00
2023-05-24T01:56:34.454Z,100.00
2023-05-24T01:59:01.150Z,100.00
2023-05-24T02:01:27.911Z,100.00
2023-05-24T02:03:54.951Z,100.00
2023-05-24T02:06:21.649Z,100.00
2023-05-24T02:08:48.356Z,100.00
2023-05-24T02:11:15.109Z,100.00
2023-05-24T02:13:41.788Z,100.00
2023-05-24T02:16:08.606Z,100.00
2023-05-24T02:18:35.810Z,100.00
2023-05-24T02:21:03.004Z,100.00
2023-05-24T02:23:29.735Z,100.00
2023-05-24T02:25:56.657Z,100.00
2023-05-24T02:28:23.485Z,100.00
2023-05-24T02:30:50.216Z,100.00
2023-05-24T02:33:17.033Z,100.00
2023-05-24T02:35:43.952Z,100.00
2023-05-24T02:38:10.709Z,100.00
2023-05-24T02:40:37.436Z,100.00
2023-05-24T02:43:04.144Z,100.00
2023-05-24T02:45:30.908Z,100.00
2023-05-24T02:47:57.688Z,100.00
2023-05-24T02:50:24.591Z,100.00
2023-05-24T02:52:51.780Z,100.00
2023-05-24T02:55:18.551Z,100.00
2023-05-24T02:57:45.584Z,100.00
2023-05-24T03:00:12.985Z,100.00
2023-05-24T03:02:41.313Z,100.00
2023-05-24T03:05:08.460Z,100.00
2023-05-24T03:07:35.657Z,100.00
2023-05-24T03:10:02.396Z,100.00
2023-05-24T03:12:29.136Z,100.00
2023-05-24T03:14:55.839Z,100.00
2023-05-24T03:17:22.684Z,100.00
2023-05-24T03:19:49.406Z,100.00
2023-05-24T03:22:16.129Z,100.00
2023-05-24T03:24:42.839Z,100.00
2023-05-24T03:27:09.610Z,100.00
2023-05-24T03:29:36.371Z,100.00
2023-05-24T03:32:03.151Z,100.00
2023-05-24T03:34:30.385Z,100.00
2023-05-24T03:36:57.233Z,100.00
2023-05-24T03:39:23.932Z,100.00
2023-05-24T03:41:50.743Z,100.00
2023-05-24T03:44:17.487Z,100.00
2023-05-24T03:46:44.226Z,100.00
2023-05-24T03:49:10.940Z,94.12
2023-05-24T03:51:37.688Z,92.81
2023-05-24T03:54:04.444Z,91.12
2023-05-24T03:56:31.190Z,90.75
2023-05-24T03:59:00.752Z,88.08
2023-05-24T04:01:33.803Z,87.29
2023-05-24T04:04:02.103Z,84.06
2023-05-24T04:06:29.802Z,83.94
2023-05-24T04:08:57.505Z,82.28
2023-05-24T04:11:24.292Z,81.36
2023-05-24T04:13:51.471Z,82.50
2023-05-24T04:16:18.283Z,82.56
2023-05-24T04:18:45.621Z,84.42
2023-05-24T04:21:12.443Z,83.00
2023-05-24T04:23:39.136Z,82.51
2023-05-24T04:26:06.119Z,83.30
2023-05-24T04:28:33.289Z,86.04
2023-05-24T04:31:00.269Z,83.59
2023-05-24T04:33:27.774Z,83.64
2023-05-24T04:35:54.515Z,84.90
2023-05-24T04:38:22.125Z,85.58
2023-05-24T04:40:49.056Z,86.07
2023-05-24T04:43:15.846Z,86.26
2023-05-24T04:45:42.586Z,82.63
2023-05-24T04:48:09.779Z,82.24
2023-05-24T04:50:37.742Z,83.04
2023-05-24T04:53:04.869Z,83.84
2023-05-24T04:55:32.639Z,81.35
2023-05-24T04:57:59.460Z,83.61
2023-05-24T05:00:26.221Z,83.48
2023-05-24T05:02:53.007Z,83.79
2023-05-24T05:05:20.373Z,80.77
2023-05-24T05:07:47.253Z,81.82
2023-05-24T05:10:13.975Z,82.09
2023-05-24T05:12:40.709Z,79.10
2023-05-24T05:15:08.320Z,81.66
2023-05-24T05:17:35.115Z,82.74
2023-05-24T05:20:02.104Z,80.39
2023-05-24T05:22:30.670Z,79.66
2023-05-24T05:24:58.019Z,77.25
2023-05-24T05:27:24.716Z,76.45
2023-05-24T05:29:51.556Z,75.29
2023-05-24T05:32:18.312Z,75.16
2023-05-24T05:34:45.282Z,77.19
2023-05-24T05:37:12.052Z,76.96
2023-05-24T05:39:38.771Z,75.71
2023-05-24T05:42:06.265Z,74.26
2023-05-24T05:44:33.087Z,75.64
2023-05-24T05:46:59.808Z,75.47
2023-05-24T05:49:26.551Z,75.58
2023-05-24T05:51:54.706Z,76.16
2023-05-24T05:54:21.536Z,75.86
2023-05-24T05:56:48.429Z,77.56
2023-05-24T05:59:16.011Z,76.69
2023-05-24T06:01:43.468Z,76.12
2023-05-24T06:04:10.724Z,76.28
2023-05-24T06:06:37.550Z,74.72
2023-05-24T06:09:04.243Z,72.87
2023-05-24T06:11:30.985Z,72.90
2023-05-24T06:13:57.780Z,72.66
2023-05-24T06:16:24.608Z,70.88
2023-05-24T06:19:04.509Z,68.70
2023-05-24T06:21:32.926Z,67.59
2023-05-24T06:23:59.878Z,66.37
2023-05-24T06:26:27.191Z,64.37
2023-05-24T06:28:54.301Z,64.10
2023-05-24T06:31:21.389Z,62.59
2023-05-24T06:34:02.768Z,60.92
2023-05-24T06:36:31.052Z,60.74
2023-05-24T06:38:57.818Z,56.67
2023-05-24T06:41:24.538Z,56.92
2023-05-24T06:43:51.233Z,53.22
2023-05-24T06:46:18.040Z,52.22
2023-05-24T06:48:44.995Z,49.08
2023-05-24T06:51:12.015Z,46.12
2023-05-24T06:53:38.720Z,45.83
2023-05-24T06:56:05.779Z,44.12
2023-05-24T06:58:32.485Z,43.30
2023-05-24T07:00:59.319Z,45.25
2023-05-24T07:03:26.449Z,44.78
2023-05-24T07:05:53.155Z,45.56
2023-05-24T07:08:19.952Z,45.52
2023-05-24T07:10:46.668Z,47.33
2023-05-24T07:13:13.674Z,46.42
2023-05-24T07:15:41.759Z,45.04
2023-05-24T07:18:08.597Z,41.32
2023-05-24T07:20:35.505Z,36.84
2023-05-24T07:23:03.839Z,36.06
2023-05-24T07:25:31.480Z,37.58
2023-05-24T07:27:58.412Z,35.22
2023-05-24T07:32:57.830Z,35.37
2023-05-24T07:35:24.946Z,38.44
2023-05-24T07:37:51.813Z,39.46
2023-05-24T07:40:19.038Z,39.08
2023-05-24T07:42:47.530Z,37.65
2023-05-24T07:45:14.991Z,38.40
2023-05-24T07:47:41.892Z,37.25
2023-05-24T07:50:09.172Z,39.29
2023-05-24T07:52:35.930Z,39.40
2023-05-24T07:55:02.660Z,38.98
2023-05-24T07:57:29.498Z,37.35
2023-05-24T07:59:56.312Z,34.40
2023-05-24T08:02:23.123Z,32.81
2023-05-24T08:04:49.912Z,32.98
2023-05-24T08:07:18.057Z,32.83
2023-05-24T08:09:44.953Z,33.54
2023-05-24T08:12:11.616Z,32.48
2023-05-24T08:14:38.298Z,31.09
2023-05-24T08:17:04.986Z,30.32
2023-05-24T08:19:35.861Z,30.55
2023-05-24T08:22:05.476Z,30.91
2023-05-24T08:24:32.528Z,30.38
2023-05-24T08:26:59.345Z,29.35
2023-05-24T08:29:26.028Z,32.26
2023-05-24T08:31:52.818Z,33.18
2023-05-24T08:34:19.681Z,35.50
2023-05-24T08:36:46.622Z,33.43
2023-05-24T08:39:13.459Z,37.51
2023-05-24T08:41:41.555Z,36.55
2023-05-24T08:44:08.302Z,36.71
2023-05-24T08:46:35.663Z,34.64
2023-05-24T08:49:05.612Z,35.75
2023-05-24T08:51:32.505Z,36.44
2023-05-24T08:53:59.681Z,34.46
2023-05-24T08:56:26.999Z,34.50
2023-05-24T08:58:56.744Z,34.88
2023-05-24T09:01:28.950Z,35.54
2023-05-24T09:03:57.363Z,35.83
2023-05-24T09:06:25.418Z,36.70
2023-05-24T09:08:53.941Z,36.69
2023-05-24T09:11:22.991Z,36.20
2023-05-24T09:13:49.777Z,34.50
2023-05-24T09:16:16.794Z,32.09
2023-05-24T09:18:43.566Z,31.57
2023-05-24T09:21:13.506Z,30.11
2023-05-24T09:23:41.180Z,28.31
2023-05-24T09:26:09.425Z,29.05
2023-05-24T09:28:36.746Z,26.83
2023-05-24T09:31:07.306Z,31.42
2023-05-24T09:33:35.258Z,29.00
2023-05-24T09:36:03.385Z,29.90
2023-05-24T09:38:30.203Z,30.31
2023-05-24T09:41:11.042Z,31.03
2023-05-24T09:43:47.810Z,30.89
2023-05-24T09:46:21.727Z,31.81
2023-05-24T09:49:03.713Z,30.63
2023-05-24T09:51:31.070Z,29.90
2023-05-24T09:53:58.340Z,29.60
2023-05-24T09:56:25.110Z,27.01
2023-05-24T09:58:51.844Z,26.68
2023-05-24T10:01:19.196Z,28.51
2023-05-24T10:03:59.358Z,26.66
2023-05-24T10:06:26.259Z,29.09
2023-05-24T10:08:54.475Z,30.99
2023-05-24T10:11:21.342Z,30.96
2023-05-24T10:13:48.671Z,32.55
2023-05-24T10:16:18.505Z,31.59
2023-05-24T10:18:45.548Z,31.60
2023-05-24T10:21:12.332Z,31.46
2023-05-24T10:23:39.402Z,30.39
2023-05-24T10:26:07.946Z,29.89
2023-05-24T10:28:43.528Z,27.62
2023-05-24T10:31:18.529Z,28.81
2023-05-24T10:33:45.456Z,28.05
2023-05-24T10:36:13.955Z,28.87
2023-05-24T10:38:40.826Z,27.19
2023-05-24T10:41:08.263Z,27.99
2023-05-24T10:43:36.221Z,28.82
2023-05-24T10:46:04.669Z,27.81
2023-05-24T10:48:37.165Z,29.53
2023-05-24T10:51:40.896Z,28.06
2023-05-24T10:54:18.028Z,28.80
2023-05-24T10:56:46.942Z,27.61
2023-05-24T10:59:37.953Z,27.82
2023-05-24T11:02:09.620Z,27.82
2023-05-24T11:04:43.414Z,27.66
2023-05-24T11:07:11.550Z,27.60
2023-05-24T11:09:45.961Z,27.02
2023-05-24T11:12:17.788Z,27.75
2023-05-24T11:14:53.091Z,28.15
2023-05-24T11:17:22.435Z,26.46
2023-05-24T11:19:54.163Z,27.49
2023-05-24T11:22:22.191Z,25.68
2023-05-24T11:24:48.986Z,26.72
2023-05-24T11:27:15.804Z,25.23
2023-05-24T11:29:43.575Z,24.73
2023-05-24T11:32:10.663Z,26.12
2023-05-24T11:34:37.969Z,25.86
2023-05-24T11:37:06.272Z,26.87
2023-05-24T11:39:34.351Z,25.90
2023-05-24T11:42:02.529Z,25.01
2023-05-24T11:44:31.632Z,25.48
2023-05-24T11:47:02.377Z,24.67
2023-05-24T11:49:29.164Z,24.87
2023-05-24T11:51:57.165Z,22.86
2023-05-24T11:54:24.701Z,26.09
2023-05-24T11:56:53.215Z,26.23
2023-05-24T11:59:23.636Z,25.33
2023-05-24T12:01:56.759Z,25.58
2023-05-24T12:04:26.836Z,24.26
2023-05-24T12:06:54.417Z,25.63
2023-05-24T12:09:21.257Z,25.10
2023-05-24T12:11:48.597Z,25.37
2023-05-24T12:14:16.292Z,26.04
2023-05-24T12:16:43.545Z,26.01
2023-05-24T12:21:58.977Z,25.74
2023-05-24T12:24:26.243Z,24.69
2023-05-24T12:26:53.668Z,25.28
2023-05-24T12:29:20.462Z,26.48
2023-05-24T12:31:50.459Z,25.00
2023-05-24T12:34:20.307Z,25.95
2023-05-24T12:36:47.753Z,25.11
2023-05-24T12:39:21.560Z,24.49
2023-05-24T12:41:54.955Z,25.40
2023-05-24T12:44:25.094Z,25.03
2023-05-24T12:46:55.958Z,27.23
2023-05-24T12:49:26.045Z,26.31
2023-05-24T12:51:54.243Z,25.92
2023-05-24T12:54:23.483Z,25.24
2023-05-24T12:56:52.875Z,27.15
2023-05-24T12:59:21.118Z,26.79
2023-05-24T13:01:52.012Z,26.62
2023-05-24T13:04:19.585Z,25.55
2023-05-24T13:06:46.351Z,29.47
2023-05-24T13:09:14.148Z,28.71
2023-05-24T13:11:40.947Z,27.18
2023-05-24T13:14:07.745Z,25.68
2023-05-24T13:16:35.536Z,26.18
2023-05-24T13:19:02.370Z,26.71
2023-05-24T13:21:29.439Z,26.53
2023-05-24T13:23:56.214Z,26.40
2023-05-24T13:26:24.449Z,28.91
2023-05-24T13:29:21.828Z,27.79
2023-05-24T13:31:38.454Z,27.20
2023-05-24T13:34:05.789Z,28.14
2023-05-24T13:36:32.786Z,29.03
2023-05-24T13:41:30.675Z,28.48
2023-05-24T13:43:57.710Z,29.61
2023-05-24T13:46:24.571Z,29.40
2023-05-24T13:48:51.544Z,29.46
2023-05-24T13:51:19.787Z,30.27
2023-05-24T13:53:47.935Z,29.09
2023-05-24T13:56:15.838Z,29.98
2023-05-24T13:58:42.894Z,29.44
2023-05-24T14:01:09.728Z,29.24
2023-05-24T14:03:36.587Z,29.85
2023-05-24T14:06:03.442Z,29.52
2023-05-24T14:08:30.186Z,29.12
2023-05-24T14:10:57.122Z,27.95
2023-05-24T14:14:16.659Z,29.03
2023-05-24T14:16:10.594Z,31.78
2023-05-24T14:18:37.920Z,30.94
2023-05-24T14:21:04.653Z,29.20
2023-05-24T14:23:32.049Z,30.83
2023-05-24T14:25:59.333Z,31.08
2023-05-24T14:28:26.422Z,29.27
2023-05-24T14:30:53.188Z,27.96
2023-05-24T14:33:19.971Z,30.03
2023-05-24T14:35:46.957Z,32.09
2023-05-24T14:38:13.863Z,34.11
2023-05-24T14:40:41.045Z,36.15
2023-05-24T14:43:10.474Z,37.03
2023-05-24T14:45:38.673Z,36.81
2023-05-24T14:48:05.862Z,35.64
2023-05-24T14:50:32.721Z,37.27
2023-05-24T14:53:00.532Z,38.21
2023-05-24T14:55:27.261Z,36.40
2023-05-24T14:57:54.008Z,36.39
2023-05-24T15:00:22.782Z,34.77
2023-05-24T15:02:50.798Z,33.33
2023-05-24T15:05:17.559Z,34.22
2023-05-24T15:07:44.337Z,34.76
2023-05-24T15:10:11.823Z,34.42
2023-05-24T15:12:38.585Z,33.91
2023-05-24T15:15:06.877Z,35.04
2023-05-24T15:17:33.830Z,35.03
2023-05-24T15:20:00.769Z,36.84
2023-05-24T15:22:27.757Z,35.62
2023-05-24T15:24:54.519Z,36.45
2023-05-24T15:27:21.416Z,37.70
2023-05-24T15:29:48.417Z,37.40
2023-05-24T15:32:15.199Z,41.73
2023-05-24T15:34:41.916Z,42.15
2023-05-24T15:37:08.680Z,42.00
2023-05-24T15:39:35.477Z,43.83
2023-05-24T15:42:02.724Z,43.96
2023-05-24T15:44:29.584Z,46.97
2023-05-24T15:46:56.512Z,45.37
2023-05-24T15:49:23.413Z,47.80
2023-05-24T15:55:57.629Z,45.43
2023-05-24T15:58:24.337Z,45.78
2023-05-24T16:00:52.829Z,45.72
2023-05-24T16:03:20.103Z,44.63
2023-05-24T16:05:49.447Z,46.30
2023-05-24T16:08:17.061Z,44.88
2023-05-24T16:10:44.501Z,45.47
2023-05-24T16:13:12.920Z,45.32
2023-05-24T16:15:41.791Z,46.56
2023-05-24T16:18:08.738Z,46.08
2023-05-24T16:20:36.509Z,48.62
2023-05-24T16:23:03.768Z,48.59
2023-05-24T16:25:30.548Z,50.02
2023-05-24T16:27:57.281Z,48.18
2023-05-24T16:30:24.215Z,46.99
2023-05-24T16:32:51.092Z,48.03
2023-05-24T16:35:17.852Z,47.79
2023-05-24T16:37:44.702Z,47.52
2023-05-24T16:40:12.275Z,47.97
2023-05-24T16:42:39.185Z,49.53
2023-05-24T16:45:06.540Z,50.26
2023-05-24T16:50:20.091Z,51.46
2023-05-24T16:52:47.357Z,52.48
2023-05-24T16:55:14.863Z,53.40
2023-05-24T16:57:42.084Z,53.61
2023-05-24T17:00:09.793Z,53.90
2023-05-24T17:02:36.653Z,53.84
2023-05-24T17:05:03.515Z,55.05
2023-05-24T17:07:30.550Z,56.18
2023-05-24T17:09:57.376Z,56.19
2023-05-24T17:12:24.134Z,56.70
2023-05-24T17:14:50.946Z,56.87
2023-05-24T17:17:17.776Z,56.96
2023-05-24T17:19:44.532Z,58.47
2023-05-24T17:22:11.426Z,58.90
2023-05-24T17:24:38.232Z,59.00
2023-05-24T17:27:05.260Z,59.49
2023-05-24T17:29:34.921Z,60.38
2023-05-24T17:32:01.851Z,60.68
2023-05-24T17:34:28.670Z,58.35
2023-05-24T17:36:55.429Z,58.46
2023-05-24T17:39:23.836Z,58.08
2023-05-24T17:41:50.691Z,58.75
2023-05-24T17:44:17.602Z,59.25
2023-05-24T17:46:44.638Z,59.98
2023-05-24T17:49:14.875Z,61.94
2023-05-24T17:51:42.085Z,59.73
2023-05-24T17:54:08.824Z,60.07
2023-05-24T17:56:35.594Z,60.84
2023-05-24T17:59:02.361Z,61.65
2023-05-24T18:01:29.282Z,63.46
2023-05-24T18:03:56.085Z,63.01
2023-05-24T18:06:22.820Z,63.50
2023-05-24T18:08:49.633Z,64.55
2023-05-24T18:11:16.428Z,66.26
2023-05-24T18:13:43.257Z,66.16
2023-05-24T18:16:10.790Z,68.24
2023-05-24T18:18:41.063Z,67.88
2023-05-24T18:21:09.575Z,67.99
2023-05-24T18:23:39.564Z,68.87
2023-05-24T18:26:07.812Z,69.63
2023-05-24T18:28:38.191Z,70.99
2023-05-24T18:31:08.417Z,72.34
2023-05-24T18:33:35.495Z,72.84
2023-05-24T18:36:04.615Z,72.05
2023-05-24T18:38:33.661Z,72.03
2023-05-24T18:41:00.580Z,73.16
2023-05-24T18:43:27.380Z,74.18
2023-05-24T18:45:54.185Z,73.74
2023-05-24T18:48:21.271Z,74.50
2023-05-24T18:50:48.490Z,75.01
2023-05-24T18:53:15.307Z,75.96
2023-05-24T18:55:42.178Z,77.43
2023-05-24T18:58:09.298Z,79.04
2023-05-24T19:00:36.367Z,78.31
2023-05-24T19:03:03.273Z,78.60
2023-05-24T19:05:30.050Z,79.23
2023-05-24T19:07:57.576Z,78.62
2023-05-24T19:10:24.369Z,79.82
2023-05-24T19:12:51.666Z,82.25
2023-05-24T19:15:18.686Z,84.82
2023-05-24T19:17:45.647Z,84.75
2023-05-24T19:20:12.523Z,86.08
2023-05-24T19:22:39.316Z,87.01
2023-05-24T19:25:06.616Z,87.26
2023-05-24T19:27:34.939Z,88.18
2023-05-24T19:30:03.193Z,88.66
2023-05-24T19:32:29.972Z,88.65
2023-05-24T19:34:56.995Z,88.22
2023-05-24T19:37:23.782Z,82.17
2023-05-24T19:39:51.483Z,79.30
2023-05-24T19:42:18.240Z,77.38
2023-05-24T19:44:45.288Z,76.59
2023-05-24T19:47:12.046Z,77.13
2023-05-24T19:49:38.910Z,77.19
2023-05-24T19:52:05.815Z,78.68
2023-05-24T19:54:32.592Z,77.03
2023-05-24T19:57:01.702Z,79.14
2023-05-24T19:59:28.471Z,78.00
2023-05-24T20:01:55.338Z,80.59
2023-05-24T20:04:22.235Z,76.29
2023-05-24T20:06:48.985Z,75.81
2023-05-24T20:09:18.736Z,76.14
2023-05-24T20:11:48.634Z,74.08
2023-05-24T20:14:15.365Z,75.32
2023-05-24T20:16:42.263Z,76.74
2023-05-24T20:19:09.097Z,75.00
2023-05-24T20:21:36.693Z,75.37
2023-05-24T20:24:03.580Z,76.16
2023-05-24T20:26:30.360Z,74.59
2023-05-24T20:28:57.075Z,76.29
2023-05-24T20:31:23.824Z,76.86
2023-05-24T20:33:51.668Z,76.42
2023-05-24T20:36:18.584Z,76.62
2023-05-24T20:38:45.566Z,75.98
2023-05-24T20:41:12.422Z,75.62
2023-05-24T20:43:39.325Z,75.58
2023-05-24T20:46:06.211Z,74.72
2023-05-24T20:48:33.107Z,76.30
2023-05-24T20:50:59.967Z,74.20
2023-05-24T20:53:26.821Z,74.59
2023-05-24T20:55:53.760Z,74.77
2023-05-24T20:58:20.845Z,74.67
2023-05-24T21:00:47.763Z,76.55
2023-05-24T21:03:14.814Z,75.09
2023-05-24T21:05:41.887Z,74.71
2023-05-24T21:08:08.779Z,76.32
2023-05-24T21:10:35.754Z,76.81
2023-05-24T21:13:02.640Z,74.59
2023-05-24T21:15:29.575Z,76.25
2023-05-24T21:17:56.404Z,76.22
2023-05-24T21:20:23.656Z,76.87
2023-05-24T21:22:50.636Z,76.03
2023-05-24T21:25:17.787Z,75.50
2023-05-24T21:27:44.651Z,76.40
2023-05-24T21:30:12.318Z,75.57
2023-05-24T21:32:39.409Z,77.67
2023-05-24T21:35:06.989Z,77.56
2023-05-24T21:37:33.814Z,76.76
2023-05-24T21:40:00.619Z,76.53
2023-05-24T21:42:27.509Z,75.64
2023-05-24T21:44:54.359Z,76.22
2023-05-24T21:47:21.277Z,76.36
2023-05-24T21:49:48.135Z,76.42
2023-05-24T21:52:14.981Z,77.50
2023-05-24T21:54:41.829Z,76.52
2023-05-24T21:57:08.727Z,77.68
2023-05-24T21:59:35.666Z,78.51
2023-05-24T22:02:02.701Z,77.46
2023-05-24T22:04:29.668Z,78.23
2023-05-24T22:06:56.508Z,78.82
2023-05-24T22:09:23.293Z,77.39
2023-05-24T22:11:50.072Z,77.63
2023-05-24T22:14:16.927Z,77.22
2023-05-24T22:16:43.863Z,77.81
2023-05-24T22:19:16.472Z,77.15
2023-05-24T22:21:43.775Z,77.76
2023-05-24T22:24:10.847Z,78.18
2023-05-24T22:26:38.352Z,78.50
2023-05-24T22:29:05.265Z,78.50
2023-05-24T22:31:33.632Z,78.48
2023-05-24T22:34:03.524Z,78.79
2023-05-24T22:36:34.171Z,79.27
2023-05-24T22:39:01.719Z,78.56
2023-05-24T22:41:28.652Z,78.99
2023-05-24T22:43:56.401Z,79.22
2023-05-24T22:46:23.491Z,80.43
2023-05-24T22:48:53.341Z,79.80
2023-05-24T22:51:20.476Z,79.16
2023-05-24T22:53:47.932Z,79.25
2023-05-24T22:56:14.858Z,79.97
2023-05-24T22:58:41.678Z,81.14
2023-05-24T23:01:08.487Z,80.63
2023-05-24T23:03:35.495Z,80.30
2023-05-24T23:06:04.658Z,81.02
2023-05-24T23:08:32.257Z,81.20
2023-05-24T23:11:10.258Z,81.85
2023-05-24T23:13:37.659Z,83.97
2023-05-24T23:16:05.613Z,83.65
2023-05-24T23:18:33.008Z,84.29
2023-05-24T23:21:01.012Z,84.21
2023-05-24T23:23:27.825Z,85.24
2023-05-24T23:25:54.637Z,86.46
2023-05-24T23:28:21.434Z,85.91
2023-05-24T23:30:48.322Z,86.31
2023-05-24T23:33:15.186Z,86.58
2023-05-24T23:35:42.162Z,86.44
2023-05-24T23:38:09.148Z,86.96
2023-05-24T23:40:36.703Z,87.11
2023-05-24T23:43:04.177Z,87.13
2023-05-24T23:45:31.119Z,87.06
2023-05-24T23:47:58.349Z,87.39
2023-05-24T23:50:25.509Z,87.32
2023-05-24T23:52:52.369Z,87.55
2023-05-24T23:55:19.128Z,87.41
2023-05-24T23:57:46.004Z,87.58
